createdAt,value
2022-12-18T00:01:35.208Z,32
2022-12-18T00:06:37.604Z,31.1
2022-12-18T00:11:40.823Z,33.8
2022-12-18T00:16:42.990Z,30.3
2022-12-18T00:21:45.271Z,33.6
2022-12-18T00:26:47.207Z,34
2022-12-18T00:31:49.155Z,30.7
2022-12-18T00:36:51.695Z,31.4
2022-12-18T00:41:53.746Z,32.1
2022-12-18T00:46:55.872Z,34.5
2022-12-18T00:51:58.014Z,34.3
2022-12-18T00:57:00.017Z,31.3
2022-12-18T01:02:02.206Z,34
2022-12-18T01:07:05.072Z,34.6
2022-12-18T01:12:07.121Z,34.5
2022-12-18T01:17:09.139Z,31.7
2022-12-18T01:22:11.144Z,33.1
2022-12-18T01:27:13.160Z,37
2022-12-18T01:32:15.319Z,35.7
2022-12-18T01:37:17.354Z,33.8
2022-12-18T01:42:19.458Z,34.3
2022-12-18T01:47:21.380Z,35.3
2022-12-18T01:52:23.465Z,34.5
2022-12-18T01:57:25.626Z,34
2022-12-18T02:02:27.819Z,35.5
2022-12-18T02:07:30.680Z,35.7
2022-12-18T02:12:32.680Z,35.1
2022-12-18T02:17:35.258Z,35.8
2022-12-18T02:22:38.824Z,34.5
2022-12-18T02:27:40.795Z,34.8
2022-12-18T02:32:43.142Z,33.8
2022-12-18T02:37:45.178Z,33.6
2022-12-18T02:42:47.106Z,34.6
2022-12-18T02:47:50.127Z,35.4
2022-12-18T02:52:52.515Z,36.4
2022-12-18T02:57:54.669Z,35.3
2022-12-18T03:02:56.917Z,33.4
2022-12-18T03:08:00.182Z,34.5
2022-12-18T03:13:02.196Z,36
2022-12-18T03:18:04.451Z,33.6
2022-12-18T03:23:06.766Z,38.3
2022-12-18T03:28:08.927Z,37.3
2022-12-18T03:33:10.944Z,36.4
2022-12-18T03:38:12.889Z,37.6
2022-12-18T03:43:14.967Z,36.6
2022-12-18T03:48:18.546Z,37.7
2022-12-18T03:53:20.929Z,39.1
2022-12-18T03:58:23.012Z,36.7
2022-12-18T04:03:26.533Z,37.6
2022-12-18T04:08:29.102Z,36.5
2022-12-18T04:13:31.358Z,38.4
2022-12-18T04:18:34.395Z,37.2
2022-12-18T04:23:36.576Z,36.9
2022-12-18T04:28:40.417Z,36.8
2022-12-18T04:33:42.867Z,37.1
2022-12-18T04:38:45.455Z,39.3
2022-12-18T04:43:47.466Z,40.3
2022-12-18T04:48:49.454Z,40.5
2022-12-18T04:53:51.429Z,40.9
2022-12-18T04:58:53.514Z,42.4
2022-12-18T05:03:55.685Z,41.7
2022-12-18T05:08:58.330Z,47.8
2022-12-18T05:14:03.127Z,38.1
2022-12-18T05:19:05.229Z,39.7
2022-12-18T05:24:07.661Z,38.5
2022-12-18T05:29:09.911Z,40.9
2022-12-18T05:34:12.572Z,76.2
2022-12-18T05:39:16.290Z,43.2
2022-12-18T05:44:18.637Z,40.7
2022-12-18T05:49:21.072Z,43.2
2022-12-18T05:54:23.147Z,42
2022-12-18T05:59:25.060Z,43.4
2022-12-18T06:04:27.321Z,42.3
2022-12-18T06:09:29.331Z,41.6
2022-12-18T06:14:31.363Z,50.5
2022-12-18T06:19:33.399Z,46.4
2022-12-18T06:24:35.349Z,44
2022-12-18T06:29:37.303Z,41.2
2022-12-18T06:34:39.571Z,44
2022-12-18T06:39:41.527Z,40.9
2022-12-18T06:44:43.538Z,41.6
2022-12-18T06:49:45.882Z,44.4
2022-12-18T06:54:48.540Z,45.3
2022-12-18T06:59:51.235Z,43.5
2022-12-18T07:04:53.746Z,40
2022-12-18T07:09:56.167Z,38.2
2022-12-18T07:14:58.518Z,35.8
2022-12-18T07:20:01.195Z,35.2
2022-12-18T07:25:03.131Z,33.7
2022-12-18T07:30:05.032Z,36.4
2022-12-18T07:35:07.069Z,35
2022-12-18T07:40:08.944Z,35.6
2022-12-18T07:45:11.644Z,37.2
2022-12-18T07:50:13.856Z,39.1
2022-12-18T07:55:15.944Z,35.8
2022-12-18T08:00:17.915Z,34.3
2022-12-18T08:05:21.776Z,32
2022-12-18T08:10:23.866Z,53.9
2022-12-18T08:15:24.774Z,27.7
2022-12-18T08:20:27.453Z,28.7
2022-12-18T08:25:29.566Z,27
2022-12-18T08:30:31.677Z,27.4
2022-12-18T08:35:37.914Z,27.7
2022-12-18T08:40:37.601Z,27.8
2022-12-18T08:45:39.619Z,26.6
2022-12-18T08:50:42.316Z,28.6
2022-12-18T08:55:48.619Z,28.5
2022-12-18T09:00:50.983Z,46.6
2022-12-18T09:05:51.727Z,26.8
2022-12-18T09:10:53.733Z,28.5
2022-12-18T09:15:55.731Z,29.6
2022-12-18T09:20:58.046Z,28.6
2022-12-18T09:22:10.168Z,28.8
2022-12-18T09:27:12.090Z,27.2
2022-12-18T09:32:19.018Z,28.3
2022-12-18T09:37:24.048Z,27.4
2022-12-18T09:42:26.116Z,25.9
2022-12-18T09:47:28.101Z,29.4
2022-12-18T09:52:30.501Z,23.1
2022-12-18T09:57:32.597Z,26.2
2022-12-18T10:02:34.640Z,28.1
2022-12-18T10:07:37.427Z,26.7
2022-12-18T10:12:39.392Z,23.9
2022-12-18T10:17:41.586Z,20
2022-12-18T10:22:43.820Z,21.2
2022-12-18T10:27:45.832Z,26.8
2022-12-18T10:32:47.756Z,25.9
2022-12-18T10:37:50.149Z,27.3
2022-12-18T10:42:52.745Z,28
2022-12-18T10:47:54.763Z,28.7
2022-12-18T10:52:56.953Z,25.7
2022-12-18T10:57:59.881Z,26.5
2022-12-18T11:03:02.033Z,31.9
2022-12-18T11:08:05.573Z,27.1
2022-12-18T11:13:07.686Z,32.2
2022-12-18T11:18:09.649Z,26.1
2022-12-18T11:23:11.955Z,27
2022-12-18T11:28:14.126Z,26.1
2022-12-18T11:33:16.027Z,23.1
2022-12-18T11:38:17.929Z,24.4
2022-12-18T11:43:20.061Z,23.8
2022-12-18T11:48:22.513Z,22.4
2022-12-18T11:53:24.373Z,38
2022-12-18T11:58:29.447Z,23.8
2022-12-18T12:03:33.407Z,22.7
2022-12-18T12:08:35.454Z,25.6
2022-12-18T12:13:37.416Z,21.3
2022-12-18T12:18:42.558Z,19.6
2022-12-18T12:23:44.883Z,22.8
2022-12-18T12:28:47.798Z,21.8
2022-12-18T12:33:49.750Z,20.5
2022-12-18T12:38:52.461Z,18
2022-12-18T12:43:55.099Z,18.9
2022-12-18T12:48:58.495Z,18.5
2022-12-18T12:54:01.818Z,19
2022-12-18T12:59:06.564Z,19
2022-12-18T13:04:08.555Z,20.3
2022-12-18T13:09:13.036Z,18.6
2022-12-18T13:14:17.062Z,19.2
2022-12-18T13:19:20.256Z,17.1
2022-12-18T13:24:22.266Z,17.3
2022-12-18T13:29:25.204Z,15.6
2022-12-18T13:34:30.465Z,16.8
2022-12-18T13:39:35.827Z,16
2022-12-18T13:44:41.237Z,29
2022-12-18T13:49:42.101Z,16.7
2022-12-18T13:54:45.570Z,28.8
2022-12-18T13:59:46.706Z,16.7
2022-12-18T14:04:49.003Z,18.5
2022-12-18T14:09:51.008Z,18.2
2022-12-18T14:14:54.950Z,19.3
2022-12-18T14:19:58.612Z,21.6
2022-12-18T14:25:01.092Z,22
2022-12-18T14:30:07.081Z,21.6
2022-12-18T14:35:09.293Z,21.4
2022-12-18T14:40:12.860Z,25.4
2022-12-18T14:45:15.487Z,27.5
2022-12-18T14:50:18.936Z,27.4
2022-12-18T14:55:20.992Z,27.6
2022-12-18T15:00:24.516Z,34.9
2022-12-18T15:05:26.560Z,30.2
2022-12-18T15:10:28.688Z,30.7
2022-12-18T15:15:30.907Z,29.6
2022-12-18T15:20:33.123Z,29.9
2022-12-18T15:25:35.323Z,28.7
2022-12-18T15:30:37.312Z,29.6
2022-12-18T15:35:43.793Z,30.2
2022-12-18T15:40:48.940Z,31.9
2022-12-18T15:45:51.274Z,33
2022-12-18T15:50:53.562Z,34
2022-12-18T15:56:00.823Z,34.1
2022-12-18T16:01:03.775Z,30.7
2022-12-18T16:06:06.893Z,30.9
2022-12-18T16:11:09.509Z,33.4
2022-12-18T16:16:11.670Z,29.2
2022-12-18T16:21:14.489Z,30.6
2022-12-18T16:26:17.945Z,31.4
2022-12-18T16:31:26.219Z,58.7
2022-12-18T16:36:31.968Z,33.3
2022-12-18T16:41:34.071Z,34.2
2022-12-18T16:46:36.146Z,36.3
2022-12-18T16:51:38.762Z,33.5
2022-12-18T16:56:40.910Z,32.6
2022-12-18T17:01:43.202Z,37
2022-12-18T17:06:46.098Z,38.5
2022-12-18T17:11:48.611Z,37.7
2022-12-18T17:16:57.892Z,39.8
2022-12-18T17:21:55.233Z,43.4
2022-12-18T17:26:57.297Z,43.7
2022-12-18T17:32:00.286Z,42.7
2022-12-18T17:37:02.820Z,41.3
2022-12-18T17:42:05.285Z,41.4
2022-12-18T17:47:05.775Z,38.7
2022-12-18T17:52:08.175Z,43
2022-12-18T17:57:10.495Z,43.3
2022-12-18T18:02:13.212Z,39.4
2022-12-18T18:07:19.181Z,43
2022-12-18T18:12:21.734Z,41.9
2022-12-18T18:17:24.429Z,41.8
2022-12-18T18:22:26.507Z,43.5
2022-12-18T18:27:31.679Z,43.8
2022-12-18T18:32:30.513Z,47.9
2022-12-18T18:37:33.914Z,46.6
2022-12-18T18:42:36.219Z,44.5
2022-12-18T18:47:38.329Z,42.8
2022-12-18T18:52:40.392Z,43.1
2022-12-18T18:57:46.312Z,44.3
2022-12-18T19:02:54.079Z,44.2
2022-12-18T19:07:52.733Z,53
2022-12-18T19:12:54.769Z,57.9
2022-12-18T19:17:57.109Z,59.3
2022-12-18T19:22:59.490Z,49.9
2022-12-18T19:28:02.327Z,49.1
2022-12-18T19:33:34.268Z,46.7
2022-12-18T19:38:15.650Z,52.7
2022-12-18T19:43:17.853Z,51.4
2022-12-18T19:48:21.155Z,50.1
2022-12-18T19:53:23.352Z,56.4
2022-12-18T19:58:25.475Z,51.9
2022-12-18T20:03:32.250Z,51.9
2022-12-18T20:08:35.084Z,50.1
2022-12-18T20:13:38.345Z,49.5
2022-12-18T20:18:42.451Z,52.9
2022-12-18T20:23:53.100Z,51.9
2022-12-18T20:28:56.757Z,58.2
2022-12-18T20:34:00.188Z,54.1
2022-12-18T20:39:05.054Z,55.8
2022-12-18T20:44:22.031Z,49.9
2022-12-18T20:49:16.131Z,57.1
2022-12-18T20:54:18.397Z,61.2
2022-12-18T20:59:20.587Z,60.3
2022-12-18T21:04:30.592Z,61.3
2022-12-18T21:09:24.054Z,55
2022-12-18T21:14:26.215Z,60.5
2022-12-18T21:19:28.944Z,72.1
2022-12-18T21:24:33.267Z,65.7
2022-12-18T21:29:35.645Z,73.9
2022-12-18T21:34:37.854Z,78.6
2022-12-18T21:39:38.728Z,75.5
2022-12-18T21:44:41.781Z,81.8
2022-12-18T21:49:44.352Z,83.2
2022-12-18T21:54:47.273Z,150.1
2022-12-18T21:59:47.691Z,210.7
2022-12-18T22:04:48.167Z,106.8
2022-12-18T22:09:50.573Z,99.4
2022-12-18T22:14:52.595Z,79.8
2022-12-18T22:19:54.733Z,76.5
2022-12-18T22:24:57.434Z,70.8
2022-12-18T22:29:59.565Z,68.2
2022-12-18T22:35:06.128Z,62.7
2022-12-18T22:40:07.312Z,65
2022-12-18T22:45:13.543Z,65.3
2022-12-18T22:50:15.575Z,61.8
2022-12-18T22:55:17.584Z,125.9
2022-12-18T23:00:20.117Z,67.6
2022-12-18T23:05:20.029Z,71.7
2022-12-18T23:10:21.966Z,66.1
2022-12-18T23:15:25.877Z,70.8
2022-12-18T23:20:31.903Z,65.5
2022-12-18T23:25:38.355Z,66.6
2022-12-18T23:30:40.530Z,65.9
2022-12-18T23:35:42.848Z,62.9
2022-12-18T23:40:44.844Z,61.3
2022-12-18T23:45:48.891Z,68.7
2022-12-18T23:50:47.355Z,68.7
2022-12-18T23:55:49.369Z,66.2
